sensor_id;sensor_type;location;lat;lon;timestamp;P1;durP1;ratioP1;P2;durP2;ratioP2
66707;SDS011;53622;0.000;0.000;2022-10-16T00:00:14;2.63;;;1.30;;
66707;SDS011;53622;0.000;0.000;2022-10-16T00:02:44;1.80;;;1.10;;
66707;SDS011;53622;0.000;0.000;2022-10-16T00:05:18;3.20;;;1.33;;
66707;SDS011;53622;0.000;0.000;2022-10-16T00:07:47;1.73;;;1.30;;
66707;SDS011;53622;0.000;0.000;2022-10-16T00:10:16;2.42;;;1.42;;
66707;SDS011;53622;0.000;0.000;2022-10-16T00:12:47;4.55;;;1.45;;
66707;SDS011;53622;0.000;0.000;2022-10-16T00:15:16;1.88;;;1.10;;
66707;SDS011;53622;0.000;0.000;2022-10-16T00:17:45;2.78;;;1.30;;
66707;SDS011;53622;0.000;0.000;2022-10-16T00:20:14;3.35;;;1.20;;
66707;SDS011;53622;0.000;0.000;2022-10-16T00:22:43;2.13;;;1.20;;
66707;SDS011;53622;0.000;0.000;2022-10-16T00:25:13;2.08;;;1.10;;
66707;SDS011;53622;0.000;0.000;2022-10-16T00:27:42;1.90;;;1.40;;
66707;SDS011;53622;0.000;0.000;2022-10-16T00:30:12;3.22;;;1.30;;
66707;SDS011;53622;0.000;0.000;2022-10-16T00:32:41;1.48;;;1.10;;
66707;SDS011;53622;0.000;0.000;2022-10-16T00:35:11;1.30;;;1.20;;
66707;SDS011;53622;0.000;0.000;2022-10-16T00:37:40;1.33;;;1.23;;
66707;SDS011;53622;0.000;0.000;2022-10-16T00:40:09;1.88;;;1.20;;
66707;SDS011;53622;0.000;0.000;2022-10-16T00:42:39;1.95;;;1.10;;
66707;SDS011;53622;0.000;0.000;2022-10-16T00:45:09;1.48;;;1.23;;
66707;SDS011;53622;0.000;0.000;2022-10-16T00:47:40;1.10;;;1.00;;
66707;SDS011;53622;0.000;0.000;2022-10-16T00:50:13;1.85;;;1.05;;
66707;SDS011;53622;0.000;0.000;2022-10-16T00:52:48;1.92;;;1.20;;
66707;SDS011;53622;0.000;0.000;2022-10-16T00:55:19;1.10;;;1.00;;
66707;SDS011;53622;0.000;0.000;2022-10-16T00:57:49;2.95;;;1.10;;
66707;SDS011;53622;0.000;0.000;2022-10-16T01:00:20;1.38;;;1.05;;
66707;SDS011;53622;0.000;0.000;2022-10-16T01:02:54;1.75;;;1.30;;
66707;SDS011;53622;0.000;0.000;2022-10-16T01:05:24;1.92;;;1.30;;
66707;SDS011;53622;0.000;0.000;2022-10-16T01:08:08;1.40;;;1.02;;
66707;SDS011;53622;0.000;0.000;2022-10-16T01:10:43;2.42;;;1.10;;
66707;SDS011;53622;0.000;0.000;2022-10-16T01:13:18;1.63;;;1.00;;
66707;SDS011;53622;0.000;0.000;2022-10-16T01:15:54;1.17;;;0.90;;
66707;SDS011;53622;0.000;0.000;2022-10-16T01:18:30;1.17;;;1.00;;
66707;SDS011;53622;0.000;0.000;2022-10-16T01:21:03;1.73;;;1.38;;
66707;SDS011;53622;0.000;0.000;2022-10-16T01:23:37;1.80;;;1.15;;
66707;SDS011;53622;0.000;0.000;2022-10-16T01:26:20;2.00;;;1.15;;
66707;SDS011;53622;0.000;0.000;2022-10-16T01:29:02;1.30;;;1.05;;
66707;SDS011;53622;0.000;0.000;2022-10-16T01:31:36;3.03;;;1.40;;
66707;SDS011;53622;0.000;0.000;2022-10-16T01:34:10;1.33;;;1.10;;
66707;SDS011;53622;0.000;0.000;2022-10-16T01:36:45;1.52;;;1.40;;
66707;SDS011;53622;0.000;0.000;2022-10-16T01:39:20;1.40;;;1.30;;
66707;SDS011;53622;0.000;0.000;2022-10-16T01:41:54;1.95;;;1.20;;
66707;SDS011;53622;0.000;0.000;2022-10-16T01:44:29;3.42;;;1.35;;
66707;SDS011;53622;0.000;0.000;2022-10-16T01:47:02;1.88;;;1.20;;
66707;SDS011;53622;0.000;0.000;2022-10-16T01:49:33;3.20;;;1.30;;
66707;SDS011;53622;0.000;0.000;2022-10-16T01:52:05;1.38;;;1.27;;
66707;SDS011;53622;0.000;0.000;2022-10-16T01:54:37;1.20;;;1.10;;
66707;SDS011;53622;0.000;0.000;2022-10-16T01:57:10;3.50;;;1.35;;
66707;SDS011;53622;0.000;0.000;2022-10-16T01:59:43;1.42;;;1.17;;
66707;SDS011;53622;0.000;0.000;2022-10-16T02:02:15;1.30;;;1.20;;
66707;SDS011;53622;0.000;0.000;2022-10-16T02:04:48;1.42;;;1.15;;
66707;SDS011;53622;0.000;0.000;2022-10-16T02:07:21;1.30;;;1.20;;
66707;SDS011;53622;0.000;0.000;2022-10-16T02:09:51;1.23;;;1.10;;
66707;SDS011;53622;0.000;0.000;2022-10-16T02:12:23;1.30;;;1.20;;
66707;SDS011;53622;0.000;0.000;2022-10-16T02:14:56;1.20;;;1.10;;
66707;SDS011;53622;0.000;0.000;2022-10-16T02:17:26;1.40;;;1.20;;
66707;SDS011;53622;0.000;0.000;2022-10-16T02:19:56;1.75;;;1.33;;
66707;SDS011;53622;0.000;0.000;2022-10-16T02:22:27;1.90;;;1.38;;
66707;SDS011;53622;0.000;0.000;2022-10-16T02:24:59;1.42;;;1.30;;
66707;SDS011;53622;0.000;0.000;2022-10-16T02:27:33;2.47;;;1.17;;
66707;SDS011;53622;0.000;0.000;2022-10-16T02:30:14;2.60;;;1.30;;
66707;SDS011;53622;0.000;0.000;2022-10-16T02:32:48;2.80;;;1.50;;
66707;SDS011;53622;0.000;0.000;2022-10-16T02:35:20;2.03;;;1.30;;
66707;SDS011;53622;0.000;0.000;2022-10-16T02:37:51;2.05;;;1.20;;
66707;SDS011;53622;0.000;0.000;2022-10-16T02:40:21;1.27;;;1.23;;
66707;SDS011;53622;0.000;0.000;2022-10-16T02:42:52;1.20;;;1.00;;
66707;SDS011;53622;0.000;0.000;2022-10-16T02:45:24;1.48;;;1.10;;
66707;SDS011;53622;0.000;0.000;2022-10-16T02:47:53;3.78;;;1.55;;
66707;SDS011;53622;0.000;0.000;2022-10-16T02:50:23;1.60;;;1.27;;
66707;SDS011;53622;0.000;0.000;2022-10-16T02:52:52;1.27;;;1.17;;
66707;SDS011;53622;0.000;0.000;2022-10-16T02:55:21;1.80;;;1.30;;
66707;SDS011;53622;0.000;0.000;2022-10-16T02:57:51;1.30;;;1.20;;
66707;SDS011;53622;0.000;0.000;2022-10-16T03:00:20;1.77;;;1.20;;
66707;SDS011;53622;0.000;0.000;2022-10-16T03:02:51;1.20;;;1.10;;
66707;SDS011;53622;0.000;0.000;2022-10-16T03:05:20;1.42;;;1.30;;
66707;SDS011;53622;0.000;0.000;2022-10-16T03:07:49;2.67;;;1.17;;
66707;SDS011;53622;0.000;0.000;2022-10-16T03:10:19;1.10;;;1.10;;
66707;SDS011;53622;0.000;0.000;2022-10-16T03:12:48;2.17;;;1.10;;
66707;SDS011;53622;0.000;0.000;2022-10-16T03:15:18;1.73;;;1.40;;
66707;SDS011;53622;0.000;0.000;2022-10-16T03:17:47;1.33;;;1.23;;
66707;SDS011;53622;0.000;0.000;2022-10-16T03:20:18;1.88;;;1.05;;
66707;SDS011;53622;0.000;0.000;2022-10-16T03:22:47;1.42;;;1.00;;
66707;SDS011;53622;0.000;0.000;2022-10-16T03:25:16;1.42;;;1.08;;
66707;SDS011;53622;0.000;0.000;2022-10-16T03:27:45;1.70;;;1.15;;
66707;SDS011;53622;0.000;0.000;2022-10-16T03:30:14;1.20;;;1.10;;
66707;SDS011;53622;0.000;0.000;2022-10-16T03:32:44;2.35;;;1.33;;
66707;SDS011;53622;0.000;0.000;2022-10-16T03:35:13;1.42;;;1.30;;
66707;SDS011;53622;0.000;0.000;2022-10-16T03:37:43;1.33;;;1.00;;
66707;SDS011;53622;0.000;0.000;2022-10-16T03:40:13;1.00;;;0.90;;
66707;SDS011;53622;0.000;0.000;2022-10-16T03:42:42;1.35;;;1.15;;
66707;SDS011;53622;0.000;0.000;2022-10-16T03:45:12;1.20;;;1.10;;
66707;SDS011;53622;0.000;0.000;2022-10-16T03:47:41;1.00;;;1.00;;
66707;SDS011;53622;0.000;0.000;2022-10-16T03:50:10;0.90;;;0.90;;
66707;SDS011;53622;0.000;0.000;2022-10-16T03:52:39;1.23;;;1.00;;
66707;SDS011;53622;0.000;0.000;2022-10-16T03:55:10;2.17;;;1.15;;
66707;SDS011;53622;0.000;0.000;2022-10-16T03:57:39;0.98;;;0.93;;
66707;SDS011;53622;0.000;0.000;2022-10-16T04:00:09;2.28;;;1.20;;
66707;SDS011;53622;0.000;0.000;2022-10-16T04:02:39;1.55;;;1.20;;
66707;SDS011;53622;0.000;0.000;2022-10-16T04:05:08;1.48;;;1.10;;
66707;SDS011;53622;0.000;0.000;2022-10-16T04:07:37;1.58;;;1.20;;
66707;SDS011;53622;0.000;0.000;2022-10-16T04:10:07;2.17;;;1.10;;
66707;SDS011;53622;0.000;0.000;2022-10-16T04:12:38;1.30;;;1.00;;
66707;SDS011;53622;0.000;0.000;2022-10-16T04:15:07;1.77;;;1.20;;
66707;SDS011;53622;0.000;0.000;2022-10-16T04:17:37;1.20;;;1.10;;
66707;SDS011;53622;0.000;0.000;2022-10-16T04:20:06;1.40;;;1.30;;
66707;SDS011;53622;0.000;0.000;2022-10-16T04:22:36;1.65;;;1.42;;
66707;SDS011;53622;0.000;0.000;2022-10-16T04:25:06;2.15;;;1.35;;
66707;SDS011;53622;0.000;0.000;2022-10-16T04:27:35;2.53;;;1.70;;
66707;SDS011;53622;0.000;0.000;2022-10-16T04:30:12;1.75;;;1.33;;
66707;SDS011;53622;0.000;0.000;2022-10-16T04:32:41;1.63;;;1.40;;
66707;SDS011;53622;0.000;0.000;2022-10-16T04:35:10;2.67;;;1.40;;
66707;SDS011;53622;0.000;0.000;2022-10-16T04:37:40;1.23;;;1.13;;
66707;SDS011;53622;0.000;0.000;2022-10-16T04:40:09;4.80;;;1.42;;
66707;SDS011;53622;0.000;0.000;2022-10-16T04:42:40;2.00;;;1.70;;
66707;SDS011;53622;0.000;0.000;2022-10-16T04:45:09;1.88;;;1.50;;
66707;SDS011;53622;0.000;0.000;2022-10-16T04:47:43;2.08;;;1.60;;
66707;SDS011;53622;0.000;0.000;2022-10-16T04:50:12;1.90;;;1.80;;
66707;SDS011;53622;0.000;0.000;2022-10-16T04:53:00;1.60;;;1.42;;
66707;SDS011;53622;0.000;0.000;2022-10-16T04:55:29;1.55;;;1.40;;
66707;SDS011;53622;0.000;0.000;2022-10-16T04:58:00;1.70;;;1.60;;
66707;SDS011;53622;0.000;0.000;2022-10-16T05:00:29;1.83;;;1.70;;
66707;SDS011;53622;0.000;0.000;2022-10-16T05:02:58;2.15;;;1.80;;
66707;SDS011;53622;0.000;0.000;2022-10-16T05:05:28;2.63;;;1.88;;
66707;SDS011;53622;0.000;0.000;2022-10-16T05:07:57;1.70;;;1.60;;
66707;SDS011;53622;0.000;0.000;2022-10-16T05:10:26;1.67;;;1.58;;
66707;SDS011;53622;0.000;0.000;2022-10-16T05:12:55;2.20;;;1.90;;
66707;SDS011;53622;0.000;0.000;2022-10-16T05:15:26;1.92;;;1.83;;
66707;SDS011;53622;0.000;0.000;2022-10-16T05:17:55;2.00;;;1.80;;
66707;SDS011;53622;0.000;0.000;2022-10-16T05:20:25;2.25;;;1.83;;
66707;SDS011;53622;0.000;0.000;2022-10-16T05:22:54;1.63;;;1.52;;
66707;SDS011;53622;0.000;0.000;2022-10-16T05:25:23;1.80;;;1.70;;
66707;SDS011;53622;0.000;0.000;2022-10-16T05:27:53;2.10;;;1.90;;
66707;SDS011;53622;0.000;0.000;2022-10-16T05:30:22;2.20;;;2.00;;
66707;SDS011;53622;0.000;0.000;2022-10-16T05:32:52;2.47;;;2.00;;
66707;SDS011;53622;0.000;0.000;2022-10-16T05:35:21;2.00;;;1.90;;
66707;SDS011;53622;0.000;0.000;2022-10-16T05:37:51;2.25;;;2.00;;
66707;SDS011;53622;0.000;0.000;2022-10-16T05:40:21;1.83;;;1.73;;
66707;SDS011;53622;0.000;0.000;2022-10-16T05:42:54;1.90;;;1.80;;
66707;SDS011;53622;0.000;0.000;2022-10-16T05:45:23;5.75;;;2.30;;
66707;SDS011;53622;0.000;0.000;2022-10-16T05:47:54;2.20;;;1.88;;
66707;SDS011;53622;0.000;0.000;2022-10-16T05:50:23;2.08;;;1.88;;
66707;SDS011;53622;0.000;0.000;2022-10-16T05:52:52;2.53;;;2.28;;
66707;SDS011;53622;0.000;0.000;2022-10-16T05:55:22;3.70;;;2.22;;
66707;SDS011;53622;0.000;0.000;2022-10-16T05:57:53;2.47;;;2.10;;
66707;SDS011;53622;0.000;0.000;2022-10-16T06:00:22;2.30;;;2.10;;
66707;SDS011;53622;0.000;0.000;2022-10-16T06:02:52;2.30;;;2.10;;
66707;SDS011;53622;0.000;0.000;2022-10-16T06:05:22;2.42;;;2.15;;
66707;SDS011;53622;0.000;0.000;2022-10-16T06:07:51;2.33;;;2.22;;
66707;SDS011;53622;0.000;0.000;2022-10-16T06:10:21;2.30;;;2.10;;
66707;SDS011;53622;0.000;0.000;2022-10-16T06:12:50;2.45;;;2.20;;
66707;SDS011;53622;0.000;0.000;2022-10-16T06:15:19;2.92;;;2.20;;
66707;SDS011;53622;0.000;0.000;2022-10-16T06:17:48;2.10;;;2.00;;
66707;SDS011;53622;0.000;0.000;2022-10-16T06:20:19;3.05;;;2.45;;
66707;SDS011;53622;0.000;0.000;2022-10-16T06:22:48;2.60;;;2.40;;
66707;SDS011;53622;0.000;0.000;2022-10-16T06:25:17;2.42;;;2.22;;
66707;SDS011;53622;0.000;0.000;2022-10-16T06:27:46;2.40;;;2.10;;
66707;SDS011;53622;0.000;0.000;2022-10-16T06:30:15;2.63;;;2.28;;
66707;SDS011;53622;0.000;0.000;2022-10-16T06:32:44;2.33;;;2.15;;
66707;SDS011;53622;0.000;0.000;2022-10-16T06:35:13;2.78;;;2.42;;
66707;SDS011;53622;0.000;0.000;2022-10-16T06:37:44;2.40;;;2.10;;
66707;SDS011;53622;0.000;0.000;2022-10-16T06:40:13;3.65;;;2.13;;
66707;SDS011;53622;0.000;0.000;2022-10-16T06:42:43;4.70;;;2.60;;
66707;SDS011;53622;0.000;0.000;2022-10-16T06:45:12;2.78;;;2.47;;
66707;SDS011;53622;0.000;0.000;2022-10-16T06:47:41;3.42;;;2.13;;
66707;SDS011;53622;0.000;0.000;2022-10-16T06:50:11;5.18;;;2.42;;
66707;SDS011;53622;0.000;0.000;2022-10-16T06:52:40;2.47;;;2.28;;
66707;SDS011;53622;0.000;0.000;2022-10-16T06:55:11;2.67;;;2.20;;
66707;SDS011;53622;0.000;0.000;2022-10-16T06:57:40;3.70;;;2.15;;
66707;SDS011;53622;0.000;0.000;2022-10-16T07:00:10;2.78;;;2.00;;
66707;SDS011;53622;0.000;0.000;2022-10-16T07:02:40;3.60;;;2.42;;
66707;SDS011;53622;0.000;0.000;2022-10-16T07:05:09;2.38;;;2.17;;
66707;SDS011;53622;0.000;0.000;2022-10-16T07:07:38;2.40;;;2.20;;
66707;SDS011;53622;0.000;0.000;2022-10-16T07:10:08;2.50;;;2.30;;
66707;SDS011;53622;0.000;0.000;2022-10-16T07:12:39;2.50;;;1.95;;
66707;SDS011;53622;0.000;0.000;2022-10-16T07:15:08;3.25;;;2.33;;
66707;SDS011;53622;0.000;0.000;2022-10-16T07:17:39;5.32;;;2.78;;
66707;SDS011;53622;0.000;0.000;2022-10-16T07:20:09;4.50;;;2.13;;
66707;SDS011;53622;0.000;0.000;2022-10-16T07:22:38;2.65;;;2.45;;
66707;SDS011;53622;0.000;0.000;2022-10-16T07:25:08;3.53;;;2.30;;
66707;SDS011;53622;0.000;0.000;2022-10-16T07:27:39;3.35;;;2.38;;
66707;SDS011;53622;0.000;0.000;2022-10-16T07:30:09;8.93;;;2.90;;
66707;SDS011;53622;0.000;0.000;2022-10-16T07:32:38;4.25;;;2.60;;
66707;SDS011;53622;0.000;0.000;2022-10-16T07:35:08;7.40;;;2.47;;
66707;SDS011;53622;0.000;0.000;2022-10-16T07:37:37;3.72;;;2.70;;
66707;SDS011;53622;0.000;0.000;2022-10-16T07:40:07;6.07;;;2.80;;
66707;SDS011;53622;0.000;0.000;2022-10-16T07:42:37;2.75;;;2.38;;
66707;SDS011;53622;0.000;0.000;2022-10-16T07:45:08;3.17;;;2.30;;
66707;SDS011;53622;0.000;0.000;2022-10-16T07:47:39;4.90;;;2.72;;
66707;SDS011;53622;0.000;0.000;2022-10-16T07:50:09;3.47;;;2.75;;
66707;SDS011;53622;0.000;0.000;2022-10-16T07:52:39;4.40;;;2.40;;
66707;SDS011;53622;0.000;0.000;2022-10-16T07:55:09;3.05;;;2.70;;
66707;SDS011;53622;0.000;0.000;2022-10-16T07:57:38;4.63;;;2.55;;
66707;SDS011;53622;0.000;0.000;2022-10-16T08:00:09;3.42;;;2.90;;
66707;SDS011;53622;0.000;0.000;2022-10-16T08:02:40;4.57;;;2.95;;
66707;SDS011;53622;0.000;0.000;2022-10-16T08:05:10;7.90;;;3.35;;
66707;SDS011;53622;0.000;0.000;2022-10-16T08:07:39;4.55;;;3.40;;
66707;SDS011;53622;0.000;0.000;2022-10-16T08:10:10;7.28;;;3.60;;
66707;SDS011;53622;0.000;0.000;2022-10-16T08:12:44;5.78;;;3.53;;
66707;SDS011;53622;0.000;0.000;2022-10-16T08:15:15;8.07;;;3.78;;
66707;SDS011;53622;0.000;0.000;2022-10-16T08:17:44;5.50;;;3.78;;
66707;SDS011;53622;0.000;0.000;2022-10-16T08:20:22;5.15;;;3.55;;
66707;SDS011;53622;0.000;0.000;2022-10-16T08:22:52;4.72;;;4.10;;
66707;SDS011;53622;0.000;0.000;2022-10-16T08:25:22;6.40;;;4.78;;
66707;SDS011;53622;0.000;0.000;2022-10-16T08:27:52;8.50;;;4.75;;
66707;SDS011;53622;0.000;0.000;2022-10-16T08:30:23;6.13;;;4.43;;
66707;SDS011;53622;0.000;0.000;2022-10-16T08:32:53;9.98;;;4.50;;
66707;SDS011;53622;0.000;0.000;2022-10-16T08:35:23;7.00;;;4.75;;
66707;SDS011;53622;0.000;0.000;2022-10-16T08:37:52;5.68;;;4.03;;
66707;SDS011;53622;0.000;0.000;2022-10-16T08:40:22;7.60;;;4.50;;
66707;SDS011;53622;0.000;0.000;2022-10-16T08:43:00;5.15;;;3.80;;
66707;SDS011;53622;0.000;0.000;2022-10-16T08:45:51;6.13;;;3.97;;
66707;SDS011;53622;0.000;0.000;2022-10-16T08:48:34;7.53;;;4.00;;
66707;SDS011;53622;0.000;0.000;2022-10-16T08:51:18;7.50;;;4.43;;
66707;SDS011;53622;0.000;0.000;2022-10-16T08:53:50;4.32;;;3.92;;
66707;SDS011;53622;0.000;0.000;2022-10-16T08:56:23;9.13;;;4.40;;
66707;SDS011;53622;0.000;0.000;2022-10-16T08:58:53;10.43;;;4.28;;
66707;SDS011;53622;0.000;0.000;2022-10-16T09:01:35;16.48;;;4.40;;
66707;SDS011;53622;0.000;0.000;2022-10-16T09:07:24;9.18;;;4.38;;
66707;SDS011;53622;0.000;0.000;2022-10-16T09:10:05;13.63;;;4.57;;
66707;SDS011;53622;0.000;0.000;2022-10-16T09:12:50;9.13;;;4.43;;
66707;SDS011;53622;0.000;0.000;2022-10-16T09:15:27;8.25;;;4.60;;
66707;SDS011;53622;0.000;0.000;2022-10-16T09:18:04;7.68;;;4.25;;
66707;SDS011;53622;0.000;0.000;2022-10-16T09:20:44;8.98;;;3.95;;
66707;SDS011;53622;0.000;0.000;2022-10-16T09:23:18;11.82;;;4.47;;
66707;SDS011;53622;0.000;0.000;2022-10-16T09:25:50;8.27;;;4.15;;
66707;SDS011;53622;0.000;0.000;2022-10-16T09:28:21;14.60;;;4.28;;
66707;SDS011;53622;0.000;0.000;2022-10-16T09:30:51;8.38;;;3.97;;
66707;SDS011;53622;0.000;0.000;2022-10-16T09:33:23;12.25;;;4.68;;
66707;SDS011;53622;0.000;0.000;2022-10-16T09:35:58;13.75;;;4.30;;
66707;SDS011;53622;0.000;0.000;2022-10-16T09:38:29;10.15;;;4.47;;
66707;SDS011;53622;0.000;0.000;2022-10-16T09:41:00;19.17;;;4.68;;
66707;SDS011;53622;0.000;0.000;2022-10-16T09:43:33;12.82;;;4.35;;
66707;SDS011;53622;0.000;0.000;2022-10-16T09:46:07;10.80;;;4.40;;
66707;SDS011;53622;0.000;0.000;2022-10-16T09:48:51;12.35;;;4.30;;
66707;SDS011;53622;0.000;0.000;2022-10-16T09:51:25;15.73;;;4.65;;
66707;SDS011;53622;0.000;0.000;2022-10-16T09:53:57;11.85;;;4.38;;
66707;SDS011;53622;0.000;0.000;2022-10-16T09:56:28;17.10;;;5.10;;
66707;SDS011;53622;0.000;0.000;2022-10-16T09:59:01;7.65;;;4.88;;
66707;SDS011;53622;0.000;0.000;2022-10-16T10:01:37;11.80;;;5.18;;
66707;SDS011;53622;0.000;0.000;2022-10-16T10:04:10;10.90;;;4.78;;
66707;SDS011;53622;0.000;0.000;2022-10-16T10:06:41;19.65;;;5.22;;
66707;SDS011;53622;0.000;0.000;2022-10-16T10:09:17;18.02;;;5.60;;
66707;SDS011;53622;0.000;0.000;2022-10-16T10:11:52;18.00;;;5.50;;
66707;SDS011;53622;0.000;0.000;2022-10-16T10:14:24;13.98;;;5.07;;
66707;SDS011;53622;0.000;0.000;2022-10-16T10:17:08;10.48;;;4.65;;
66707;SDS011;53622;0.000;0.000;2022-10-16T10:19:42;18.48;;;5.32;;
66707;SDS011;53622;0.000;0.000;2022-10-16T10:22:16;13.02;;;4.93;;
66707;SDS011;53622;0.000;0.000;2022-10-16T10:24:55;8.13;;;4.88;;
66707;SDS011;53622;0.000;0.000;2022-10-16T10:27:49;11.77;;;4.85;;
66707;SDS011;53622;0.000;0.000;2022-10-16T10:30:38;16.15;;;4.97;;
66707;SDS011;53622;0.000;0.000;2022-10-16T10:33:17;12.00;;;4.75;;
66707;SDS011;53622;0.000;0.000;2022-10-16T10:35:52;12.23;;;5.55;;
66707;SDS011;53622;0.000;0.000;2022-10-16T10:38:35;11.70;;;4.43;;
66707;SDS011;53622;0.000;0.000;2022-10-16T10:44:14;9.07;;;5.07;;
66707;SDS011;53622;0.000;0.000;2022-10-16T10:46:48;10.98;;;4.50;;
66707;SDS011;53622;0.000;0.000;2022-10-16T10:55:10;8.38;;;4.28;;
66707;SDS011;53622;0.000;0.000;2022-10-16T10:57:55;8.82;;;4.22;;
66707;SDS011;53622;0.000;0.000;2022-10-16T11:00:33;6.63;;;4.22;;
66707;SDS011;53622;0.000;0.000;2022-10-16T11:03:13;8.73;;;3.90;;
66707;SDS011;53622;0.000;0.000;2022-10-16T11:05:53;7.45;;;4.10;;
66707;SDS011;53622;0.000;0.000;2022-10-16T11:08:28;10.98;;;3.78;;
66707;SDS011;53622;0.000;0.000;2022-10-16T11:11:04;8.73;;;3.97;;
66707;SDS011;53622;0.000;0.000;2022-10-16T11:13:39;6.60;;;3.95;;
66707;SDS011;53622;0.000;0.000;2022-10-16T11:16:17;6.95;;;4.05;;
66707;SDS011;53622;0.000;0.000;2022-10-16T11:18:51;5.00;;;3.28;;
66707;SDS011;53622;0.000;0.000;2022-10-16T11:21:27;4.85;;;3.40;;
66707;SDS011;53622;0.000;0.000;2022-10-16T11:24:04;7.68;;;3.40;;
66707;SDS011;53622;0.000;0.000;2022-10-16T11:26:43;6.97;;;3.47;;
66707;SDS011;53622;0.000;0.000;2022-10-16T11:29:16;8.82;;;3.50;;
66707;SDS011;53622;0.000;0.000;2022-10-16T11:31:50;6.07;;;3.60;;
66707;SDS011;53622;0.000;0.000;2022-10-16T11:34:25;6.13;;;3.08;;
66707;SDS011;53622;0.000;0.000;2022-10-16T11:37:05;8.75;;;3.22;;
66707;SDS011;53622;0.000;0.000;2022-10-16T11:39:41;5.20;;;3.08;;
66707;SDS011;53622;0.000;0.000;2022-10-16T11:42:16;5.97;;;3.10;;
66707;SDS011;53622;0.000;0.000;2022-10-16T11:44:51;9.82;;;3.30;;
66707;SDS011;53622;0.000;0.000;2022-10-16T11:47:27;7.68;;;2.90;;
66707;SDS011;53622;0.000;0.000;2022-10-16T11:50:23;8.63;;;2.70;;
66707;SDS011;53622;0.000;0.000;2022-10-16T11:52:59;12.20;;;2.90;;
66707;SDS011;53622;0.000;0.000;2022-10-16T11:55:34;6.80;;;3.08;;
66707;SDS011;53622;0.000;0.000;2022-10-16T11:58:14;5.53;;;2.85;;
66707;SDS011;53622;0.000;0.000;2022-10-16T12:00:53;8.13;;;2.83;;
66707;SDS011;53622;0.000;0.000;2022-10-16T12:03:31;7.95;;;2.70;;
66707;SDS011;53622;0.000;0.000;2022-10-16T12:06:13;6.82;;;3.05;;
66707;SDS011;53622;0.000;0.000;2022-10-16T12:08:50;8.25;;;2.50;;
66707;SDS011;53622;0.000;0.000;2022-10-16T12:11:24;6.57;;;2.80;;
66707;SDS011;53622;0.000;0.000;2022-10-16T12:17:24;5.03;;;2.28;;
66707;SDS011;53622;0.000;0.000;2022-10-16T12:19:59;5.53;;;2.15;;
66707;SDS011;53622;0.000;0.000;2022-10-16T12:22:47;5.25;;;2.20;;
66707;SDS011;53622;0.000;0.000;2022-10-16T12:25:22;7.60;;;2.30;;
66707;SDS011;53622;0.000;0.000;2022-10-16T12:27:58;5.78;;;2.22;;
66707;SDS011;53622;0.000;0.000;2022-10-16T12:30:34;6.03;;;2.60;;
66707;SDS011;53622;0.000;0.000;2022-10-16T12:33:05;4.20;;;1.80;;
66707;SDS011;53622;0.000;0.000;2022-10-16T12:35:48;5.18;;;2.10;;
66707;SDS011;53622;0.000;0.000;2022-10-16T12:38:19;8.98;;;2.20;;
66707;SDS011;53622;0.000;0.000;2022-10-16T12:40:55;12.02;;;1.98;;
66707;SDS011;53622;0.000;0.000;2022-10-16T12:43:36;5.32;;;2.28;;
66707;SDS011;53622;0.000;0.000;2022-10-16T12:46:23;4.72;;;2.10;;
66707;SDS011;53622;0.000;0.000;2022-10-16T12:49:19;4.30;;;2.00;;
66707;SDS011;53622;0.000;0.000;2022-10-16T12:51:51;4.03;;;1.90;;
66707;SDS011;53622;0.000;0.000;2022-10-16T12:54:26;6.82;;;2.08;;
66707;SDS011;53622;0.000;0.000;2022-10-16T12:57:07;6.47;;;1.77;;
66707;SDS011;53622;0.000;0.000;2022-10-16T12:59:52;4.30;;;1.90;;
66707;SDS011;53622;0.000;0.000;2022-10-16T13:02:39;6.13;;;2.05;;
66707;SDS011;53622;0.000;0.000;2022-10-16T13:05:30;4.75;;;1.70;;
66707;SDS011;53622;0.000;0.000;2022-10-16T13:08:21;4.47;;;1.90;;
66707;SDS011;53622;0.000;0.000;2022-10-16T13:11:05;5.13;;;1.75;;
66707;SDS011;53622;0.000;0.000;2022-10-16T13:13:45;6.63;;;2.00;;
66707;SDS011;53622;0.000;0.000;2022-10-16T13:16:35;5.20;;;1.90;;
66707;SDS011;53622;0.000;0.000;2022-10-16T13:19:16;4.38;;;2.00;;
66707;SDS011;53622;0.000;0.000;2022-10-16T13:21:54;4.72;;;2.10;;
66707;SDS011;53622;0.000;0.000;2022-10-16T13:24:43;4.53;;;2.22;;
66707;SDS011;53622;0.000;0.000;2022-10-16T13:27:23;9.82;;;2.08;;
66707;SDS011;53622;0.000;0.000;2022-10-16T13:30:08;5.00;;;2.25;;
66707;SDS011;53622;0.000;0.000;2022-10-16T13:32:45;4.63;;;2.00;;
66707;SDS011;53622;0.000;0.000;2022-10-16T13:35:20;3.33;;;1.92;;
66707;SDS011;53622;0.000;0.000;2022-10-16T13:37:51;3.95;;;2.00;;
66707;SDS011;53622;0.000;0.000;2022-10-16T13:40:31;4.15;;;1.73;;
66707;SDS011;53622;0.000;0.000;2022-10-16T13:43:02;5.68;;;2.10;;
66707;SDS011;53622;0.000;0.000;2022-10-16T13:45:32;7.82;;;2.15;;
66707;SDS011;53622;0.000;0.000;2022-10-16T13:48:06;3.78;;;2.25;;
66707;SDS011;53622;0.000;0.000;2022-10-16T13:50:39;4.35;;;1.70;;
66707;SDS011;53622;0.000;0.000;2022-10-16T13:53:11;4.72;;;2.00;;
66707;SDS011;53622;0.000;0.000;2022-10-16T13:55:43;6.32;;;2.13;;
66707;SDS011;53622;0.000;0.000;2022-10-16T13:58:16;3.25;;;2.10;;
66707;SDS011;53622;0.000;0.000;2022-10-16T14:00:56;6.72;;;2.30;;
66707;SDS011;53622;0.000;0.000;2022-10-16T14:03:29;5.50;;;2.00;;
66707;SDS011;53622;0.000;0.000;2022-10-16T14:06:00;5.00;;;2.10;;
66707;SDS011;53622;0.000;0.000;2022-10-16T14:08:32;4.18;;;2.10;;
66707;SDS011;53622;0.000;0.000;2022-10-16T14:11:02;6.43;;;2.22;;
66707;SDS011;53622;0.000;0.000;2022-10-16T14:13:32;4.38;;;2.50;;
66707;SDS011;53622;0.000;0.000;2022-10-16T14:16:06;8.88;;;2.40;;
66707;SDS011;53622;0.000;0.000;2022-10-16T14:18:40;7.43;;;2.60;;
66707;SDS011;53622;0.000;0.000;2022-10-16T14:21:11;7.88;;;2.50;;
66707;SDS011;53622;0.000;0.000;2022-10-16T14:23:43;4.90;;;2.42;;
66707;SDS011;53622;0.000;0.000;2022-10-16T14:26:16;6.53;;;2.33;;
66707;SDS011;53622;0.000;0.000;2022-10-16T14:28:47;9.77;;;2.70;;
66707;SDS011;53622;0.000;0.000;2022-10-16T14:31:25;5.60;;;2.65;;
66707;SDS011;53622;0.000;0.000;2022-10-16T14:33:58;4.93;;;2.13;;
66707;SDS011;53622;0.000;0.000;2022-10-16T14:36:28;7.07;;;2.50;;
66707;SDS011;53622;0.000;0.000;2022-10-16T14:39:02;4.68;;;2.55;;
66707;SDS011;53622;0.000;0.000;2022-10-16T14:41:40;7.95;;;2.70;;
66707;SDS011;53622;0.000;0.000;2022-10-16T14:44:13;5.72;;;2.70;;
66707;SDS011;53622;0.000;0.000;2022-10-16T14:46:45;7.07;;;2.80;;
66707;SDS011;53622;0.000;0.000;2022-10-16T14:49:16;4.38;;;2.75;;
66707;SDS011;53622;0.000;0.000;2022-10-16T14:51:48;9.23;;;2.70;;
66707;SDS011;53622;0.000;0.000;2022-10-16T14:54:19;7.18;;;2.58;;
66707;SDS011;53622;0.000;0.000;2022-10-16T14:56:49;7.03;;;2.53;;
66707;SDS011;53622;0.000;0.000;2022-10-16T14:59:22;7.90;;;2.58;;
66707;SDS011;53622;0.000;0.000;2022-10-16T15:02:01;7.88;;;2.97;;
66707;SDS011;53622;0.000;0.000;2022-10-16T15:04:46;6.68;;;2.72;;
66707;SDS011;53622;0.000;0.000;2022-10-16T15:07:16;6.75;;;2.45;;
66707;SDS011;53622;0.000;0.000;2022-10-16T15:09:47;7.32;;;2.90;;
66707;SDS011;53622;0.000;0.000;2022-10-16T15:12:17;4.53;;;2.83;;
66707;SDS011;53622;0.000;0.000;2022-10-16T15:14:47;4.40;;;2.60;;
66707;SDS011;53622;0.000;0.000;2022-10-16T15:17:17;5.65;;;2.53;;
66707;SDS011;53622;0.000;0.000;2022-10-16T15:19:49;5.00;;;2.78;;
66707;SDS011;53622;0.000;0.000;2022-10-16T15:22:19;6.00;;;2.50;;
66707;SDS011;53622;0.000;0.000;2022-10-16T15:24:50;8.25;;;2.97;;
66707;SDS011;53622;0.000;0.000;2022-10-16T15:27:20;11.27;;;3.17;;
66707;SDS011;53622;0.000;0.000;2022-10-16T15:29:49;5.63;;;2.65;;
66707;SDS011;53622;0.000;0.000;2022-10-16T15:32:19;4.72;;;2.60;;
66707;SDS011;53622;0.000;0.000;2022-10-16T15:34:50;5.95;;;2.53;;
66707;SDS011;53622;0.000;0.000;2022-10-16T15:37:19;4.40;;;2.30;;
66707;SDS011;53622;0.000;0.000;2022-10-16T15:39:49;4.18;;;2.80;;
66707;SDS011;53622;0.000;0.000;2022-10-16T15:42:19;3.05;;;2.70;;
66707;SDS011;53622;0.000;0.000;2022-10-16T15:44:48;4.25;;;2.33;;
66707;SDS011;53622;0.000;0.000;2022-10-16T15:47:19;5.15;;;2.20;;
66707;SDS011;53622;0.000;0.000;2022-10-16T15:49:50;6.82;;;2.53;;